« Back
NWS Peachtree City, Ga » Text Product » CSG Terminal Aerodrome Forecast


Printer-friendly Version
Current Version              Previous Versions:   1  2  3  4  5  6  7  8  9  

Terminal Aerodrome Forecast

805
FTUS42 KFFC 311700 RRA
TAFCSG
TAF
KCSG 311742Z 3118/0118 VRB04KT P6SM BKN040
     FM312200 07006KT P6SM BKN035
     FM010500 05005KT P6SM BKN018
     FM010800 06003KT P6SM BKN012
     FM011500 06005KT P6SM BKN025 PROB30 0116/0118 4SM -RA BR=



USA.gov is the U.S. government's official web portal to all federal, state and local government web resources and services.